Time;durP1;ratioP1;P1;durP2;ratioP2;P2;SDS_P1;SDS_P2;PMS_P1;PMS_P2;Temp;Humidity;BMP_temperature;BMP_pressure;BME280_temperature;BME280_humidity;BME280_pressure;Samples;Min_cycle;Max_cycle;Signal;HPM_P1;HPM_P2
2022/11/18 00:00:44;;;;;;;17.60;4.45;;;;;;;6.09;100.00;99332.38;5101839;28;20036;-69
2022/11/18 00:03:10;;;;;;;16.67;4.43;;;;;;;6.05;100.00;99341.13;5104400;28;20019;-68
2022/11/18 00:05:35;;;;;;;15.82;4.25;;;;;;;6.00;100.00;99338.53;5099884;28;20032;-69
2022/11/18 00:08:00;;;;;;;18.23;4.65;;;;;;;5.97;100.00;99342.84;5103497;28;20020;-70
2022/11/18 00:10:26;;;;;;;16.90;4.50;;;;;;;5.88;100.00;99334.13;5102260;28;20382;-69
2022/11/18 00:15:35;;;;;;;17.67;4.50;;;;;;;5.89;100.00;99338.47;5101458;28;20059;-68
2022/11/18 00:18:00;;;;;;;17.15;4.63;;;;;;;5.92;100.00;99345.47;5103471;28;20406;-69
2022/11/18 00:20:26;;;;;;;16.75;4.47;;;;;;;5.88;100.00;99347.25;5102451;28;20396;-70
2022/11/18 00:22:51;;;;;;;19.67;4.60;;;;;;;5.90;100.00;99349.88;5103843;28;20032;-70
2022/11/18 00:25:16;;;;;;;18.65;4.90;;;;;;;5.84;100.00;99353.34;5107521;27;20406;-70
2022/11/18 00:27:42;;;;;;;16.58;4.70;;;;;;;5.82;100.00;99354.22;5104577;28;20028;-70
2022/11/18 00:30:08;;;;;;;18.25;4.88;;;;;;;5.77;100.00;99356.84;5108203;28;20027;-70
2022/11/18 00:32:33;;;;;;;18.05;5.07;;;;;;;5.77;100.00;99356.84;5104798;28;20032;-70
2022/11/18 00:34:58;;;;;;;19.98;5.28;;;;;;;5.77;100.00;99356.84;5106682;28;20047;-69
2022/11/18 00:37:24;;;;;;;19.90;5.00;;;;;;;5.81;100.00;99365.56;5106354;28;20032;-70
2022/11/18 00:39:49;;;;;;;19.10;5.00;;;;;;;5.88;100.00;99368.22;5105272;28;20031;-70
2022/11/18 00:44:58;;;;;;;18.38;4.88;;;;;;;6.03;100.00;99367.38;5106951;28;20059;-70
2022/11/18 00:47:23;;;;;;;18.55;4.93;;;;;;;6.05;100.00;99377.84;5105975;28;20478;-70
2022/11/18 00:49:48;;;;;;;18.45;5.10;;;;;;;6.06;100.00;99377.84;5105017;28;20481;-70
2022/11/18 00:52:14;;;;;;;18.73;5.03;;;;;;;6.05;100.00;99380.47;5107381;27;20550;-70
2022/11/18 00:54:39;;;;;;;17.70;4.80;;;;;;;6.04;100.00;99381.34;5104017;28;20063;-70
2022/11/18 00:57:04;;;;;;;18.63;4.90;;;;;;;6.01;100.00;99378.72;5107064;28;20515;-70
2022/11/18 00:59:30;;;;;;;16.48;4.70;;;;;;;6.00;100.00;99384.84;5105125;28;20051;-70
2022/11/18 01:01:55;;;;;;;19.85;5.05;;;;;;;6.03;100.00;99392.72;5105721;28;20028;-70
2022/11/18 01:04:21;;;;;;;18.27;5.00;;;;;;;6.07;100.00;99395.34;5106150;28;20077;-70
2022/11/18 01:06:46;;;;;;;19.30;4.72;;;;;;;6.07;100.00;99402.34;5104414;28;20036;-70
2022/11/18 01:09:12;;;;;;;18.35;4.80;;;;;;;6.09;100.00;99403.22;5107508;28;20032;-70
2022/11/18 01:14:24;;;;;;;16.88;4.68;;;;;;;6.12;100.00;99405.84;5103034;28;20047;-71
2022/11/18 01:16:52;;;;;;;17.67;5.00;;;;;;;6.15;100.00;99411.09;5106363;28;20024;-70
2022/11/18 01:19:17;;;;;;;17.88;4.55;;;;;;;6.18;100.00;99411.09;5104408;28;20028;-70
2022/11/18 01:21:43;;;;;;;19.00;4.65;;;;;;;6.19;100.00;99418.09;5107049;28;20032;-70
2022/11/18 01:24:08;;;;;;;19.08;4.82;;;;;;;6.21;100.00;99415.47;5103752;28;20442;-69
2022/11/18 01:26:34;;;;;;;18.50;4.95;;;;;;;6.24;100.00;99425.94;5106190;28;20035;-69
2022/11/18 01:28:59;;;;;;;17.38;4.82;;;;;;;6.26;100.00;99425.09;5104657;28;20031;-70
2022/11/18 01:31:24;;;;;;;18.98;4.85;;;;;;;6.29;100.00;99432.06;5104953;28;20052;-70
2022/11/18 01:33:49;;;;;;;19.70;4.80;;;;;;;6.32;100.00;99424.22;5104526;27;20454;-69
2022/11/18 01:36:26;;;;;;;20.08;5.10;;;;;;;6.34;100.00;99434.69;5103803;28;20031;-70
2022/11/18 01:38:53;;;;;;;18.27;4.80;;;;;;;6.34;100.00;99437.31;5105606;28;20065;-69
2022/11/18 01:41:20;;;;;;;18.42;4.65;;;;;;;6.33;100.00;99446.06;5103943;28;20020;-69
2022/11/18 01:43:53;;;;;;;16.50;4.68;;;;;;;6.36;100.00;99451.31;5106143;28;20048;-69
2022/11/18 01:46:20;;;;;;;17.42;4.47;;;;;;;6.34;100.00;99448.69;5103858;28;20105;-69
2022/11/18 01:48:50;;;;;;;18.17;4.70;;;;;;;6.35;100.00;99454.81;5106053;28;20032;-69
2022/11/18 01:51:18;;;;;;;18.08;4.88;;;;;;;6.34;100.00;99451.31;5103184;28;20067;-70
2022/11/18 01:53:59;;;;;;;19.05;4.80;;;;;;;6.33;100.00;99457.44;5106402;28;20031;-69
2022/11/18 01:56:30;;;;;;;17.33;4.47;;;;;;;6.31;100.00;99456.56;5104571;28;20028;-70
2022/11/18 01:59:00;;;;;;;17.45;4.45;;;;;;;6.33;100.00;99453.94;5104367;28;20053;-69
2022/11/18 02:01:25;;;;;;;16.40;4.38;;;;;;;6.37;100.00;99463.56;5104495;28;20024;-70
2022/11/18 02:03:52;;;;;;;18.23;4.88;;;;;;;6.42;100.00;99461.78;5105164;28;20110;-69
2022/11/18 02:06:19;;;;;;;18.75;4.78;;;;;;;6.48;100.00;99467.06;5103344;28;20047;-69
2022/11/18 02:08:45;;;;;;;18.15;4.90;;;;;;;6.52;100.00;99460.91;5105893;28;20058;-68
2022/11/18 02:11:49;;;;;;;16.45;4.68;;;;;;;6.57;100.00;99461.78;5102634;28;20093;-70
2022/11/18 02:13:59;;;;;;;19.30;5.10;;;;;;;6.62;100.00;99470.53;5103036;28;20036;-69
2022/11/18 02:16:51;;;;;;;17.35;4.95;;;;;;;6.69;100.00;99471.41;5104454;28;20052;-69
2022/11/18 02:19:41;;;;;;;15.90;4.50;;;;;;;6.73;100.00;99477.53;5096854;28;20047;-69
2022/11/18 02:22:36;;;;;;;17.27;4.50;;;;;;;6.74;100.00;99476.63;5102738;28;20118;-69
2022/11/18 02:25:10;;;;;;;15.48;4.45;;;;;;;6.77;100.00;99476.63;5103711;28;20032;-69
2022/11/18 02:27:54;;;;;;;16.67;4.47;;;;;;;6.80;100.00;99481.88;5102702;28;20479;-69
2022/11/18 02:30:19;;;;;;;17.27;4.25;;;;;;;6.81;100.00;99483.63;5100593;28;20037;-70
2022/11/18 02:33:10;;;;;;;17.40;4.40;;;;;;;6.83;100.00;99483.63;5105690;28;20464;-69
2022/11/18 02:35:39;;;;;;;15.52;4.50;;;;;;;6.86;100.00;99491.50;5105151;28;20069;-68
2022/11/18 02:38:18;;;;;;;16.13;4.10;;;;;;;6.91;100.00;99488.00;5102475;28;20463;-70
2022/11/18 02:40:52;;;;;;;19.00;4.38;;;;;;;6.93;100.00;99503.75;5098722;28;20028;-69
2022/11/18 02:43:23;;;;;;;17.77;4.50;;;;;;;6.93;100.00;99499.38;5103486;28;20382;-70
2022/11/18 02:45:54;;;;;;;19.08;4.88;;;;;;;6.97;100.00;99509.03;5102165;28;20032;-69
2022/11/18 02:48:22;;;;;;;15.48;4.30;;;;;;;6.98;100.00;99505.50;5104478;28;20020;-70
2022/11/18 02:50:50;;;;;;;17.63;4.50;;;;;;;7.00;100.00;99504.63;5102123;28;20076;-70
2022/11/18 02:53:18;;;;;;;20.33;4.93;;;;;;;7.01;100.00;99509.00;5105291;28;20026;-70
2022/11/18 02:55:45;;;;;;;17.67;4.47;;;;;;;7.01;100.00;99507.25;5101720;28;20024;-70
2022/11/18 02:58:14;;;;;;;17.08;4.60;;;;;;;7.00;100.00;99508.13;5105231;28;20035;-70
2022/11/18 03:00:39;;;;;;;16.55;4.50;;;;;;;7.00;100.00;99513.38;5097793;28;20031;-70
2022/11/18 03:03:26;;;;;;;15.90;4.30;;;;;;;7.02;100.00;99518.63;5103278;28;20023;-71
2022/11/18 03:06:03;;;;;;;17.42;4.68;;;;;;;7.01;100.00;99522.16;5100632;28;20463;-70
2022/11/18 03:08:36;;;;;;;17.33;4.80;;;;;;;7.03;100.00;99521.25;5103259;28;20063;-71
2022/11/18 03:11:14;;;;;;;18.10;4.78;;;;;;;7.06;100.00;99526.50;5103870;28;20417;-70
2022/11/18 03:14:12;;;;;;;18.35;5.10;;;;;;;7.09;100.00;99522.97;5097514;28;20107;-69
2022/11/18 03:17:00;;;;;;;18.30;4.80;;;;;;;7.09;100.00;99528.25;5104677;28;20081;-70
2022/11/18 03:20:00;;;;;;;18.20;4.80;;;;;;;7.11;100.00;99529.13;5101358;28;20062;-70
2022/11/18 03:22:46;;;;;;;16.60;4.47;;;;;;;7.08;100.00;99534.41;5101231;28;20107;-70
2022/11/18 03:25:43;;;;;;;18.83;4.90;;;;;;;7.08;100.00;99540.50;5097901;28;20051;-70
2022/11/18 03:28:26;;;;;;;18.00;4.57;;;;;;;7.09;100.00;99539.66;5104906;28;20042;-70
2022/11/18 03:30:54;;;;;;;15.55;4.45;;;;;;;7.09;100.00;99541.38;5100000;28;20031;-70
2022/11/18 03:33:27;;;;;;;18.45;4.80;;;;;;;7.09;100.00;99544.91;5104214;28;20115;-70
2022/11/18 03:35:55;;;;;;;17.63;4.53;;;;;;;7.07;100.00;99546.63;5102437;28;20024;-70
2022/11/18 03:38:29;;;;;;;18.90;5.03;;;;;;;7.05;100.00;99552.75;5103793;28;20508;-70
2022/11/18 03:41:00;;;;;;;18.63;4.57;;;;;;;7.03;100.00;99554.53;5102866;28;20032;-67
2022/11/18 03:43:33;;;;;;;16.33;4.78;;;;;;;7.05;100.00;99558.91;5103020;28;20026;-68
2022/11/18 03:46:25;;;;;;;16.60;4.65;;;;;;;7.07;100.00;99562.41;5102938;28;20035;-68
2022/11/18 03:48:53;;;;;;;16.20;4.75;;;;;;;7.05;100.00;99564.19;5092549;28;20421;-68
2022/11/18 03:51:25;;;;;;;16.95;4.75;;;;;;;7.03;100.00;99573.78;5103799;28;20043;-68
2022/11/18 03:54:00;;;;;;;19.63;5.10;;;;;;;7.00;100.00;99573.81;5102037;28;20021;-68
2022/11/18 03:56:33;;;;;;;16.85;4.82;;;;;;;6.99;100.00;99574.69;5103116;28;20035;-68
2022/11/18 03:59:08;;;;;;;17.08;4.60;;;;;;;7.01;100.00;99582.56;5106606;28;20028;-68
2022/11/18 04:01:46;;;;;;;17.50;4.57;;;;;;;7.02;100.00;99576.41;5105705;28;20050;-68
2022/11/18 04:04:12;;;;;;;18.60;4.75;;;;;;;6.98;100.00;99576.44;5101239;28;20032;-68
2022/11/18 04:06:55;;;;;;;16.38;4.75;;;;;;;6.95;100.00;99584.31;5108265;28;20024;-68
2022/11/18 04:09:24;;;;;;;;;;;;;;;6.93;100.00;99588.72;5103857;28;20114;-68
2022/11/18 04:12:01;;;;;;;17.40;4.78;;;;;;;6.91;100.00;99597.47;5107547;28;19911;-68
2022/11/18 04:14:29;;;;;;;17.88;4.90;;;;;;;6.92;100.00;99605.34;5106683;28;20024;-67
2022/11/18 04:16:54;;;;;;;17.38;4.90;;;;;;;6.87;100.00;99603.59;5106898;28;20417;-68
2022/11/18 04:19:19;;;;;;;18.83;4.95;;;;;;;6.77;100.00;99600.97;5105554;28;20031;-68
2022/11/18 04:21:47;;;;;;;19.13;5.05;;;;;;;6.73;100.00;99603.63;5108127;28;20028;-68
2022/11/18 04:24:12;;;;;;;19.77;5.43;;;;;;;6.69;100.00;99605.34;5104648;28;20359;-70
2022/11/18 04:26:37;;;;;;;18.58;5.50;;;;;;;6.63;100.00;99611.47;5107962;28;20231;-70
2022/11/18 04:29:03;;;;;;;18.90;5.70;;;;;;;6.54;100.00;99614.09;5105415;28;20027;-70
2022/11/18 04:31:28;;;;;;;19.77;5.85;;;;;;;6.50;100.00;99617.59;5106440;28;20031;-69
2022/11/18 04:33:54;;;;;;;21.17;5.90;;;;;;;6.45;100.00;99611.44;5106864;28;20020;-70
2022/11/18 04:36:19;;;;;;;19.55;6.00;;;;;;;6.38;100.00;99620.22;5105025;28;20170;-71
2022/11/18 04:38:45;;;;;;;19.60;6.15;;;;;;;6.32;100.00;99621.06;5107996;28;20019;-71
2022/11/18 04:41:10;;;;;;;20.92;6.07;;;;;;;6.28;100.00;99624.56;5104345;28;20032;-70
2022/11/18 04:43:35;;;;;;;21.73;6.72;;;;;;;6.24;100.00;99628.03;5107416;28;20434;-70
2022/11/18 04:46:01;;;;;;;21.55;6.43;;;;;;;6.17;100.00;99629.75;5105509;28;20482;-70
2022/11/18 04:48:26;;;;;;;21.10;6.38;;;;;;;6.14;100.00;99635.00;5105801;28;20119;-70
2022/11/18 04:50:51;;;;;;;21.33;6.60;;;;;;;6.13;100.00;99637.63;5106462;28;20051;-70
2022/11/18 04:53:17;;;;;;;20.98;6.80;;;;;;;6.14;100.00;99642.88;5104898;28;20413;-69
2022/11/18 04:55:42;;;;;;;21.38;7.10;;;;;;;6.10;100.00;99638.47;5107806;28;20028;-69
2022/11/18 04:58:07;;;;;;;21.40;6.90;;;;;;;6.03;100.00;99640.22;5104288;28;20038;-69
2022/11/18 05:00:32;;;;;;;22.13;6.97;;;;;;;6.00;100.00;99652.44;5106600;28;20089;-69
2022/11/18 05:02:58;;;;;;;20.90;6.80;;;;;;;5.97;100.00;99648.06;5105542;27;20031;-69
2022/11/18 05:05:23;;;;;;;21.13;7.00;;;;;;;5.98;100.00;99654.19;5105148;28;20039;-68
2022/11/18 05:07:49;;;;;;;21.00;7.28;;;;;;;5.98;100.00;99655.06;5106958;28;20031;-67
2022/11/18 05:10:15;;;;;;;20.55;6.90;;;;;;;6.01;100.00;99655.06;5103720;28;20039;-68
2022/11/18 05:12:50;;;;;;;21.88;7.55;;;;;;;5.96;100.00;99663.78;5107436;28;20027;-68
2022/11/18 05:15:17;;;;;;;22.60;7.22;;;;;;;5.89;100.00;99661.09;5100822;28;20040;-68
2022/11/18 05:17:42;;;;;;;21.02;7.18;;;;;;;5.86;100.00;99666.34;5107237;28;20072;-68
2022/11/18 05:20:08;;;;;;;21.30;7.15;;;;;;;5.81;100.00;99668.06;5103857;28;20425;-68
2022/11/18 05:22:34;;;;;;;21.70;6.97;;;;;;;5.76;100.00;99672.41;5106605;28;20042;-67
2022/11/18 05:24:59;;;;;;;22.13;7.70;;;;;;;5.71;100.00;99668.91;5104877;28;20099;-67
2022/11/18 05:27:24;;;;;;;21.00;7.07;;;;;;;5.68;100.00;99671.47;5104958;28;20516;-68
2022/11/18 05:29:50;;;;;;;24.52;8.23;;;;;;;5.66;100.00;99673.22;5106450;28;20027;-68
2022/11/18 05:32:15;;;;;;;21.92;7.80;;;;;;;5.67;100.00;99675.00;5103353;28;20088;-67
2022/11/18 05:34:41;;;;;;;22.33;7.60;;;;;;;5.66;100.00;99679.34;5106951;28;20024;-67
2022/11/18 05:37:07;;;;;;;22.30;8.30;;;;;;;5.67;100.00;99686.34;5103931;28;20028;-67
2022/11/18 05:39:32;;;;;;;21.40;8.10;;;;;;;5.63;100.00;99688.94;5105472;28;20028;-68
2022/11/18 05:44:43;;;;;;;22.08;8.18;;;;;;;5.58;100.00;99696.78;5099431;28;20035;-67
2022/11/18 05:47:09;;;;;;;24.23;8.70;;;;;;;5.58;100.00;99694.16;5106166;28;20428;-68
2022/11/18 05:49:34;;;;;;;24.00;8.60;;;;;;;5.56;100.00;99704.66;5103812;28;20457;-68
2022/11/18 05:51:59;;;;;;;22.25;7.90;;;;;;;5.52;100.00;99697.63;5085336;28;20049;-67
2022/11/18 05:54:25;;;;;;;21.63;7.93;;;;;;;5.51;100.00;99702.84;5105011;28;20031;-67
2022/11/18 05:56:51;;;;;;;22.20;8.30;;;;;;;5.50;100.00;99707.19;5103486;28;20024;-69
2022/11/18 05:59:16;;;;;;;23.30;8.60;;;;;;;5.53;100.00;99709.88;5106400;28;20027;-68
2022/11/18 06:01:41;;;;;;;22.60;8.60;;;;;;;5.50;100.00;99712.44;5081249;28;20124;-68
2022/11/18 06:04:23;;;;;;;23.65;8.85;;;;;;;5.57;100.00;99714.25;5105164;28;20389;-68
2022/11/18 06:06:53;;;;;;;22.63;9.05;;;;;;;5.55;100.00;99718.63;5100061;28;20071;-68
2022/11/18 06:09:22;;;;;;;22.38;8.95;;;;;;;5.61;100.00;99722.13;5106026;28;20034;-69
2022/11/18 06:11:53;;;;;;;22.77;9.23;;;;;;;5.62;100.00;99722.16;5102873;28;20111;-67
2022/11/18 06:14:25;;;;;;;22.90;8.35;;;;;;;5.63;100.00;99728.28;5105533;28;20127;-67
2022/11/18 06:16:56;;;;;;;23.42;8.63;;;;;;;5.57;100.00;99732.59;5103226;28;20034;-67
2022/11/18 06:19:22;;;;;;;23.45;8.65;;;;;;;5.59;100.00;99730.88;5105090;28;20069;-67
2022/11/18 06:21:48;;;;;;;23.42;8.82;;;;;;;5.52;100.00;99734.31;5102140;28;20032;-68
2022/11/18 06:24:14;;;;;;;23.15;9.10;;;;;;;5.47;100.00;99741.25;5105796;27;20111;-68
2022/11/18 06:26:40;;;;;;;21.77;8.70;;;;;;;5.46;100.00;99747.41;5102538;28;20359;-67
2022/11/18 06:29:08;;;;;;;22.67;8.75;;;;;;;5.45;100.00;99755.25;5104980;28;20032;-67
2022/11/18 06:31:34;;;;;;;23.30;9.05;;;;;;;5.38;100.00;99754.31;5099658;28;20031;-70
2022/11/18 06:33:59;;;;;;;24.15;8.85;;;;;;;5.37;100.00;99757.78;5092121;28;20024;-73
2022/11/18 06:36:25;;;;;;;23.23;9.02;;;;;;;5.43;100.00;99765.69;5102141;28;20027;-73
2022/11/18 06:38:50;;;;;;;23.25;9.02;;;;;;;5.39;100.00;99764.81;5097763;28;20067;-73
2022/11/18 06:41:16;;;;;;;22.02;8.77;;;;;;;5.36;100.00;99764.78;5095559;28;20470;-68
2022/11/18 06:43:42;;;;;;;22.60;9.23;;;;;;;5.37;100.00;99770.88;5098097;28;20495;-70
2022/11/18 06:49:01;;;;;;;23.88;9.82;;;;;;;5.37;100.00;99786.63;5096836;28;20078;-70
2022/11/18 06:51:27;;;;;;;23.40;9.88;;;;;;;5.43;100.00;99785.78;5099336;27;20445;-72
2022/11/18 06:53:52;;;;;;;23.92;9.98;;;;;;;5.48;100.00;99782.34;5095002;28;20471;-74
2022/11/18 06:56:19;;;;;;;24.90;10.30;;;;;;;5.55;100.00;99791.16;5096585;28;20046;-69
2022/11/18 06:58:45;;;;;;;24.08;10.18;;;;;;;5.54;100.00;99792.00;5100811;28;20028;-69
2022/11/18 07:01:20;;;;;;;23.85;9.80;;;;;;;5.59;100.00;99801.69;5098837;28;20405;-70
2022/11/18 07:03:46;;;;;;;22.27;9.57;;;;;;;5.63;100.00;99793.81;5091162;28;20028;-69
2022/11/18 07:06:15;;;;;;;24.13;9.57;;;;;;;5.57;100.00;99798.16;5097473;28;20395;-74
2022/11/18 07:08:41;;;;;;;23.08;9.68;;;;;;;5.52;100.00;99802.50;5099782;28;20019;-73
2022/11/18 07:11:09;;;;;;;22.83;8.90;;;;;;;5.57;100.00;99806.00;5094768;28;20088;-68
2022/11/18 07:13:35;;;;;;;22.83;9.07;;;;;;;5.51;100.00;99811.22;5094424;28;20024;-70
2022/11/18 07:16:12;;;;;;;22.73;9.05;;;;;;;5.54;100.00;99818.22;5097480;28;20386;-67
2022/11/18 07:18:40;;;;;;;23.50;9.13;;;;;;;5.45;100.00;99816.41;5098353;28;20019;-67
2022/11/18 07:21:11;;;;;;;21.85;9.30;;;;;;;5.46;100.00;99815.56;5099578;28;20056;-67
2022/11/18 07:23:36;;;;;;;22.23;8.88;;;;;;;5.42;100.00;99819.00;5100111;28;20104;-71
2022/11/18 07:26:03;;;;;;;22.25;9.32;;;;;;;5.43;100.00;99831.22;5095724;28;20028;-68
2022/11/18 07:28:29;;;;;;;21.52;8.95;;;;;;;5.39;100.00;99837.31;5097571;28;20629;-66
2022/11/18 07:31:01;;;;;;;22.17;9.13;;;;;;;5.41;100.00;99836.44;5092954;28;20077;-67
2022/11/18 07:33:26;;;;;;;24.08;9.18;;;;;;;5.40;100.00;99836.44;5089801;28;20020;-67
2022/11/18 07:35:51;;;;;;;23.00;8.95;;;;;;;5.37;100.00;99846.91;5094647;28;20111;-71
2022/11/18 07:38:17;;;;;;;22.60;9.88;;;;;;;5.46;100.00;99846.09;5098955;28;20059;-72
2022/11/18 07:40:42;;;;;;;21.63;8.88;;;;;;;5.46;100.00;99856.59;5097026;28;20067;-70
2022/11/18 07:43:07;;;;;;;21.42;9.25;;;;;;;5.48;100.00;99855.75;5094888;28;20062;-73
2022/11/18 07:45:33;;;;;;;23.92;8.95;;;;;;;5.44;100.00;99855.72;5102750;28;20028;-70
2022/11/18 07:47:59;;;;;;;22.10;9.07;;;;;;;5.45;100.00;99860.09;5094557;28;20032;-74
2022/11/18 07:50:24;;;;;;;22.38;9.38;;;;;;;5.46;100.00;99860.13;5099066;28;20020;-73
2022/11/18 07:52:49;;;;;;;22.08;9.18;;;;;;;5.47;100.00;99872.34;5095747;28;20044;-73
2022/11/18 07:55:14;;;;;;;22.00;9.20;;;;;;;5.50;100.00;99867.13;5099354;28;20030;-73
2022/11/18 07:57:40;;;;;;;22.35;9.18;;;;;;;5.59;100.00;99877.72;5096922;28;20035;-73
2022/11/18 08:00:06;;;;;;;25.00;9.57;;;;;;;5.65;100.00;99879.50;5096305;28;20024;-69
2022/11/18 08:02:31;;;;;;;21.50;9.40;;;;;;;5.74;100.00;99889.22;5095867;28;20085;-74
2022/11/18 08:04:56;;;;;;;23.30;9.23;;;;;;;5.85;100.00;99887.53;5097473;28;20032;-70
2022/11/18 08:07:22;;;;;;;23.48;9.00;;;;;;;5.93;100.00;99888.47;5097840;28;20040;-69
2022/11/18 08:09:47;;;;;;;21.77;8.70;;;;;;;6.02;100.00;99894.72;5098117;28;20035;-67
2022/11/18 08:12:12;;;;;;;22.65;8.68;;;;;;;6.16;100.00;99895.69;5098566;28;20028;-67
2022/11/18 08:14:38;;;;;;;22.77;8.88;;;;;;;6.24;100.00;99893.97;5094977;28;20039;-68
2022/11/18 08:17:03;;;;;;;21.60;8.63;;;;;;;6.23;100.00;99896.59;5077172;28;20027;-68
2022/11/18 08:19:28;;;;;;;22.30;8.52;;;;;;;6.18;100.00;99904.44;5097817;28;20032;-68
2022/11/18 08:21:54;;;;;;;21.88;8.27;;;;;;;6.04;100.00;99903.47;5096756;28;20060;-68
2022/11/18 08:24:19;;;;;;;21.95;8.45;;;;;;;6.00;100.00;99904.28;5096689;28;20028;-68
2022/11/18 08:26:44;;;;;;;23.58;8.75;;;;;;;6.01;100.00;99911.31;5100157;28;20089;-68
2022/11/18 08:29:10;;;;;;;22.75;8.75;;;;;;;6.05;100.00;99915.72;5097103;28;20031;-68
2022/11/18 08:31:35;;;;;;;20.88;8.43;;;;;;;6.14;100.00;99920.16;5093926;28;20021;-71
2022/11/18 08:34:03;;;;;;;21.73;8.57;;;;;;;6.34;100.00;99917.69;5100238;28;20106;-71
2022/11/18 08:36:32;;;;;;;21.92;8.90;;;;;;;6.60;100.00;99923.97;5092519;28;20608;-71
2022/11/18 08:38:59;;;;;;;22.20;8.30;;;;;;;6.86;100.00;99915.38;5094659;28;20027;-72
2022/11/18 08:41:35;;;;;;;20.63;7.68;;;;;;;7.06;100.00;99928.59;5101322;28;20028;-72
2022/11/18 08:44:01;;;;;;;20.58;7.97;;;;;;;7.21;100.00;99924.25;5100033;28;20024;-72
2022/11/18 08:46:26;;;;;;;22.17;7.95;;;;;;;7.25;100.00;99926.00;5107626;28;20027;-73
2022/11/18 08:48:52;;;;;;;22.33;8.18;;;;;;;7.24;100.00;99932.16;5100278;28;20162;-71
2022/11/18 08:51:17;;;;;;;20.70;7.65;;;;;;;7.26;100.00;99930.41;5107053;28;20052;-71
2022/11/18 08:53:43;;;;;;;19.88;7.78;;;;;;;7.37;100.00;99938.31;5105289;27;20035;-72
2022/11/18 08:56:14;;;;;;;21.95;7.82;;;;;;;7.48;100.00;99932.25;5105759;28;20039;-71
2022/11/18 08:58:40;;;;;;;20.60;7.30;;;;;;;7.51;100.00;99936.59;5100568;28;20028;-72
2022/11/18 09:01:06;;;;;;;20.88;7.40;;;;;;;7.43;100.00;99939.22;5106725;28;20024;-72
2022/11/18 09:03:32;;;;;;;22.17;7.78;;;;;;;7.39;100.00;99940.09;5105759;28;20032;-72
2022/11/18 09:06:08;;;;;;;20.55;7.60;;;;;;;7.40;100.00;99943.63;5105068;28;20051;-72
2022/11/18 09:08:34;;;;;;;20.20;7.55;;;;;;;7.37;100.00;99943.56;5104855;28;20031;-71
2022/11/18 09:11:13;;;;;;;21.20;8.20;;;;;;;7.42;100.00;99944.47;5105511;28;20020;-72
2022/11/18 09:13:38;;;;;;;20.70;7.40;;;;;;;7.47;100.00;99948.88;5104535;28;20023;-72
2022/11/18 09:16:04;;;;;;;21.75;7.30;;;;;;;7.78;100.00;99945.44;5106191;28;20024;-72
2022/11/18 09:18:30;;;;;;;20.38;7.22;;;;;;;7.98;100.00;99948.06;5105253;28;20084;-72
2022/11/18 09:20:57;;;;;;;19.83;6.53;;;;;;;8.10;100.00;99947.22;5104919;28;20055;-72
2022/11/18 09:23:22;;;;;;;19.38;6.60;;;;;;;8.17;100.00;99952.50;5105094;28;20375;-72
2022/11/18 09:25:48;;;;;;;20.58;6.70;;;;;;;8.26;100.00;99953.38;5103534;28;20032;-72
2022/11/18 09:28:13;;;;;;;19.15;6.00;;;;;;;8.31;100.00;99964.75;5105813;28;20032;-72
2022/11/18 09:30:40;;;;;;;20.00;6.15;;;;;;;8.51;100.00;99964.78;5103816;28;20028;-72
2022/11/18 09:33:06;;;;;;;20.63;6.03;;;;;;;8.57;100.00;99975.31;5096225;28;20028;-80
2022/11/18 09:35:32;;;;;;;19.38;6.07;;;;;;;8.60;100.00;99974.44;5093135;28;20433;-70
2022/11/18 09:37:58;;;;;;;19.77;6.50;;;;;;;8.69;100.00;99972.66;5097061;28;20460;-71
2022/11/18 09:40:23;;;;;;;18.00;5.50;;;;;;;8.80;100.00;99982.31;5092560;28;20032;-67
2022/11/18 09:43:19;;;;;;;19.10;6.10;;;;;;;8.97;100.00;99991.06;5094573;28;20936;-70
2022/11/18 09:45:53;;;;;;;20.25;5.80;;;;;;;9.05;100.00;99994.53;5092781;28;20417;-71
2022/11/18 09:49:11;;;;;;;18.35;5.53;;;;;;;9.20;100.00;99998.00;5100184;28;20471;-72
2022/11/18 09:51:10;;;;;;;19.20;5.78;;;;;;;9.14;100.00;99995.41;5091066;28;20024;-65
2022/11/18 09:53:38;;;;;;;18.42;5.80;;;;;;;9.12;100.00;99999.81;5094313;28;20111;-66
2022/11/18 09:56:07;;;;;;;18.65;5.60;;;;;;;9.10;100.00;100012.09;5101437;28;20028;-68
2022/11/18 09:58:36;;;;;;;19.23;5.57;;;;;;;9.09;100.00;100013.88;5100167;28;20039;-68
2022/11/18 10:01:08;;;;;;;19.75;5.65;;;;;;;9.09;100.00;100016.50;5100030;28;20048;-68
2022/11/18 10:03:34;;;;;;;18.27;5.15;;;;;;;9.09;100.00;100016.50;5101491;28;20032;-68
2022/11/18 10:06:12;;;;;;;19.20;5.90;;;;;;;9.06;100.00;100035.84;5096930;28;20539;-68
2022/11/18 10:09:00;;;;;;;17.90;5.32;;;;;;;9.17;100.00;100029.66;5098721;28;20475;-69
2022/11/18 10:11:34;;;;;;;19.15;5.30;;;;;;;9.16;100.00;100022.63;5095922;28;20056;-69
2022/11/18 10:14:38;;;;;;;19.52;5.50;;;;;;;9.16;100.00;100022.63;5090469;28;20081;-69
2022/11/18 10:17:50;;;;;;;18.25;5.30;;;;;;;9.20;100.00;100019.09;5102769;28;20106;-69
2022/11/18 10:20:25;;;;;;;16.73;4.78;;;;;;;9.33;100.00;100019.94;5030689;28;20116;-68
2022/11/18 10:23:09;;;;;;;18.35;4.78;;;;;;;9.50;100.00;100023.38;5037589;28;20469;-69
2022/11/18 10:25:34;;;;;;;17.77;4.95;;;;;;;9.89;100.00;100028.50;5077103;28;20040;-67
2022/11/18 10:28:20;;;;;;;17.85;4.50;;;;;;;10.00;100.00;100036.34;5101050;28;20070;-67
2022/11/18 10:30:46;;;;;;;17.05;4.45;;;;;;;9.84;100.00;100043.47;5100372;28;20038;-67
2022/11/18 10:33:24;;;;;;;17.52;4.43;;;;;;;9.63;100.00;100034.78;5099053;28;20110;-69
2022/11/18 10:35:50;;;;;;;16.60;4.20;;;;;;;9.50;100.00;100033.06;5101300;28;20051;-69
2022/11/18 10:38:18;;;;;;;16.58;4.20;;;;;;;9.35;100.00;100042.78;5097896;28;20065;-68
2022/11/18 10:40:49;;;;;;;19.30;4.30;;;;;;;9.32;100.00;100042.81;5095778;28;20028;-68
2022/11/18 10:43:42;;;;;;;16.77;4.40;;;;;;;9.31;100.00;100040.19;5100852;28;20028;-69
2022/11/18 10:46:22;;;;;;;;;;;;;;;9.39;100.00;100044.53;5098177;28;20465;-69
2022/11/18 10:49:05;;;;;;;16.75;4.28;;;;;;;9.33;100.00;100043.69;5097458;28;19912;-71
2022/11/18 10:51:30;;;;;;;17.17;4.05;;;;;;;9.36;100.00;100043.66;5096588;28;20486;-70
2022/11/18 10:54:07;;;;;;;16.48;4.05;;;;;;;9.32;100.00;100045.44;5100328;28;20043;-72
2022/11/18 10:56:49;;;;;;;18.67;4.18;;;;;;;9.24;100.00;100063.03;5096729;28;20028;-72
2022/11/18 10:59:30;;;;;;;16.80;4.25;;;;;;;9.14;100.00;100059.53;5103271;28;20063;-72
2022/11/18 11:02:23;;;;;;;15.98;4.00;;;;;;;9.20;100.00;100056.03;5101017;28;20016;-70
2022/11/18 11:04:50;;;;;;;18.23;4.40;;;;;;;9.28;100.00;100061.28;5098832;28;20032;-72
2022/11/18 11:07:33;;;;;;;19.27;4.50;;;;;;;9.31;100.00;100067.41;5104937;28;20540;-72
2022/11/18 11:10:00;;;;;;;18.27;4.40;;;;;;;9.32;100.00;100055.09;5101840;28;20061;-70
2022/11/18 11:12:30;;;;;;;18.50;4.57;;;;;;;9.37;100.00;100059.47;5103662;28;20470;-69
2022/11/18 11:15:00;;;;;;;17.73;4.75;;;;;;;9.53;100.00;100064.72;5102835;28;20066;-72
2022/11/18 11:17:31;;;;;;;14.85;4.40;;;;;;;9.49;100.00;100063.84;5103609;28;20032;-69
2022/11/18 11:20:19;;;;;;;18.60;4.32;;;;;;;9.51;100.00;100066.47;5103176;28;20036;-72
2022/11/18 11:22:45;;;;;;;19.23;4.90;;;;;;;9.55;100.00;100065.56;5097831;28;20027;-72
2022/11/18 11:25:53;;;;;;;18.10;5.00;;;;;;;9.57;100.00;100067.34;5104817;28;20032;-70
2022/11/18 11:28:30;;;;;;;16.95;4.60;;;;;;;9.60;100.00;100071.72;5082460;28;20040;-71
2022/11/18 11:31:14;;;;;;;18.92;5.03;;;;;;;9.75;100.00;100076.94;5102527;28;20024;-70
2022/11/18 11:33:42;;;;;;;18.48;4.80;;;;;;;9.84;100.00;100069.84;5101347;28;20123;-71
2022/11/18 11:36:26;;;;;;;18.30;5.15;;;;;;;9.72;100.00;100070.78;5104042;28;20046;-70
2022/11/18 11:39:06;;;;;;;19.25;5.03;;;;;;;9.64;100.00;100069.94;5097769;28;20123;-70
2022/11/18 11:41:34;;;;;;;19.05;5.00;;;;;;;9.45;100.00;100067.41;5102385;28;20526;-71
2022/11/18 11:44:26;;;;;;;18.77;4.93;;;;;;;9.50;100.00;100070.00;5103289;28;20028;-72
2022/11/18 11:50:02;;;;;;;20.27;5.93;;;;;;;9.29;100.00;100081.50;5101752;28;20074;-70
2022/11/18 11:52:44;;;;;;;19.25;5.07;;;;;;;9.38;100.00;100084.13;5063791;28;20044;-71
2022/11/18 11:55:16;;;;;;;19.17;5.13;;;;;;;9.43;100.00;100085.84;5101323;28;20123;-69